createdAt,value
2023-02-01T00:00:51.565Z,100677.75
2023-02-01T00:01:53.283Z,100679.41
2023-02-01T00:02:56.066Z,100677.94
2023-02-01T00:03:58.020Z,100678.13
2023-02-01T00:05:00.788Z,100682.00
2023-02-01T00:06:04.040Z,100690.16
2023-02-01T00:07:07.583Z,100678.75
2023-02-01T00:08:10.100Z,100675.69
2023-02-01T00:09:12.869Z,100676.03
2023-02-01T00:10:14.548Z,100669.72
2023-02-01T00:11:18.590Z,100673.84
2023-02-01T00:12:20.246Z,100673.50
2023-02-01T00:13:22.907Z,100674.53
2023-02-01T00:14:24.713Z,100668.88
2023-02-01T00:15:27.451Z,100675.50
2023-02-01T00:16:30.686Z,100684.34
2023-02-01T00:17:33.385Z,100675.69
2023-02-01T00:18:35.131Z,100677.50
2023-02-01T00:19:37.824Z,100675.94
2023-02-01T00:20:39.691Z,100678.38
2023-02-01T00:21:42.664Z,100673.78
2023-02-01T00:22:44.341Z,100676.78
2023-02-01T00:23:47.207Z,100676.50
2023-02-01T00:24:48.961Z,100675.41
2023-02-01T00:25:51.783Z,100679.38
2023-02-01T00:26:54.848Z,100677.91
2023-02-01T00:27:59.791Z,100679.06
2023-02-01T00:29:01.836Z,100685.69
2023-02-01T00:30:05.407Z,100686.31
2023-02-01T00:31:07.405Z,100679.47
2023-02-01T00:32:10.128Z,100676.97
2023-02-01T00:33:11.885Z,100683.22
2023-02-01T00:34:16.431Z,100674.63
2023-02-01T00:35:18.130Z,100670.78
2023-02-01T00:36:21.198Z,100657.84
2023-02-01T00:37:24.199Z,100661.13
2023-02-01T00:38:26.881Z,100673.50
2023-02-01T00:39:28.700Z,100666.66
2023-02-01T00:40:31.397Z,100654.59
2023-02-01T00:41:33.160Z,100668.72
2023-02-01T00:42:37.220Z,100663.09
2023-02-01T00:43:39.263Z,100661.75
2023-02-01T00:44:41.948Z,100661.38
2023-02-01T00:45:43.665Z,100667.13
2023-02-01T00:46:46.480Z,100663.00
2023-02-01T00:47:48.242Z,100657.66
2023-02-01T00:48:51.383Z,100660.84
2023-02-01T00:49:53.237Z,100664.81
2023-02-01T00:50:55.975Z,100663.75
2023-02-01T00:51:57.750Z,100672.97
2023-02-01T00:53:00.732Z,100663.47
2023-02-01T00:54:02.500Z,100659.41
2023-02-01T00:55:05.699Z,100653.97
2023-02-01T00:56:08.434Z,100641.25
2023-02-01T00:57:11.181Z,100646.19
2023-02-01T00:58:14.467Z,100647.34
2023-02-01T00:59:17.349Z,100646.34
2023-02-01T01:00:19.940Z,100644.16
2023-02-01T01:01:25.090Z,100638.56
2023-02-01T01:02:27.585Z,100641.13
2023-02-01T01:03:34.153Z,100646.72
2023-02-01T01:04:36.834Z,100649.13
2023-02-01T01:05:38.571Z,100642.84
2023-02-01T01:06:41.438Z,100645.72
2023-02-01T01:07:43.166Z,100639.09
2023-02-01T01:08:46.342Z,100644.25
2023-02-01T01:09:48.104Z,100644.53
2023-02-01T01:10:51.261Z,100641.53
2023-02-01T01:11:53.717Z,100646.78
2023-02-01T01:12:56.386Z,100651.34
2023-02-01T01:14:01.593Z,100647.63
2023-02-01T01:15:03.747Z,100637.59
2023-02-01T01:16:07.694Z,100648.81
2023-02-01T01:17:09.400Z,100643.19
2023-02-01T01:18:12.174Z,100651.06
2023-02-01T01:19:14.897Z,100644.75
2023-02-01T01:20:17.594Z,100646.72
2023-02-01T01:21:20.427Z,100645.00
2023-02-01T01:22:22.147Z,100652.69
2023-02-01T01:23:25.022Z,100650.84
2023-02-01T01:24:27.747Z,100662.81
2023-02-01T01:25:29.642Z,100652.66
2023-02-01T01:26:32.705Z,100662.13
2023-02-01T01:27:34.408Z,100655.50
2023-02-01T01:28:37.541Z,100651.31
2023-02-01T01:29:40.611Z,100654.88
2023-02-01T01:30:43.385Z,100650.94
2023-02-01T01:31:46.324Z,100656.31
2023-02-01T01:32:48.067Z,100658.19
2023-02-01T01:33:51.741Z,100654.22
2023-02-01T01:34:53.447Z,100652.22
2023-02-01T01:35:56.181Z,100654.59
2023-02-01T01:36:57.958Z,100650.25
2023-02-01T01:38:01.173Z,100659.94
2023-02-01T01:39:04.247Z,100655.22
2023-02-01T01:40:08.496Z,100653.25
2023-02-01T01:41:14.559Z,100648.31
2023-02-01T01:42:16.286Z,100647.28
2023-02-01T01:43:23.243Z,100648.16
2023-02-01T01:45:04.694Z,100643.88
2023-02-01T01:46:06.469Z,100644.56
2023-02-01T01:47:09.391Z,100639.53
2023-02-01T01:48:16.145Z,100639.03
2023-02-01T01:49:21.024Z,100634.94
2023-02-01T01:50:26.384Z,100629.59
2023-02-01T01:51:31.131Z,100623.19
2023-02-01T01:52:32.901Z,100630.19
2023-02-01T01:53:40.079Z,100620.09
2023-02-01T01:54:45.378Z,100623.19
2023-02-01T01:55:49.730Z,100620.63
2023-02-01T01:56:54.718Z,100622.34
2023-02-01T01:58:00.217Z,100627.88
2023-02-01T01:59:02.425Z,100621.19
2023-02-01T02:00:10.171Z,100619.88
2023-02-01T02:01:11.942Z,100623.28
2023-02-01T02:02:14.825Z,100625.78
2023-02-01T02:03:20.120Z,100622.19
2023-02-01T02:04:22.873Z,100627.97
2023-02-01T02:05:24.640Z,100621.38
2023-02-01T02:06:37.238Z,100628.72
2023-02-01T02:07:41.678Z,100620.34
2023-02-01T02:08:44.428Z,100622.78
2023-02-01T02:09:59.500Z,100618.19
2023-02-01T02:11:03.638Z,100632.47
2023-02-01T02:12:08.464Z,100622.91
2023-02-01T02:13:11.902Z,100612.50
2023-02-01T02:14:15.024Z,100615.38
2023-02-01T02:15:19.466Z,100619.28
2023-02-01T02:16:32.313Z,100602.50
2023-02-01T02:17:39.474Z,100611.97
2023-02-01T02:18:46.948Z,100602.66
2023-02-01T02:20:05.960Z,100596.34
2023-02-01T02:21:20.582Z,100583.78
2023-02-01T02:22:43.646Z,100580.59
2023-02-01T02:24:18.175Z,100585.47
2023-02-01T02:26:00.893Z,100586.81
2023-02-01T02:27:23.967Z,100592.88
2023-02-01T02:29:01.503Z,100598.53
2023-02-01T02:30:30.272Z,100603.72
2023-02-01T02:31:46.730Z,100599.34
2023-02-01T02:33:19.988Z,100596.28
2023-02-01T02:34:26.555Z,100606.44
2023-02-01T02:35:32.945Z,100600.81
2023-02-01T02:36:41.058Z,100609.97
2023-02-01T02:37:46.936Z,100605.78
2023-02-01T02:38:53.715Z,100602.53
2023-02-01T02:40:01.782Z,100609.16
2023-02-01T02:41:10.039Z,100608.03
2023-02-01T02:42:35.454Z,100608.34
2023-02-01T02:44:03.815Z,100611.41
2023-02-01T02:45:28.251Z,100623.53
2023-02-01T02:46:53.343Z,100627.97
2023-02-01T02:47:58.800Z,100627.97
2023-02-01T02:49:07.438Z,100639.00
2023-02-01T02:50:37.181Z,100648.72
2023-02-01T02:52:01.901Z,100642.94
2023-02-01T02:53:27.294Z,100638.53
2023-02-01T02:54:48.232Z,100643.91
2023-02-01T02:55:51.877Z,100630.31
2023-02-01T02:57:13.246Z,100636.91
2023-02-01T02:58:34.594Z,100630.25
2023-02-01T02:59:55.472Z,100629.38
2023-02-01T03:01:16.254Z,100628.59
2023-02-01T03:02:36.891Z,100606.09
2023-02-01T03:03:57.460Z,100614.72
2023-02-01T03:05:01.550Z,100597.66
2023-02-01T03:06:03.413Z,100596.69
2023-02-01T03:07:17.036Z,100599.09
2023-02-01T03:08:20.684Z,100601.66
2023-02-01T03:09:28.934Z,100593.84
2023-02-01T03:10:39.959Z,100590.94
2023-02-01T03:12:00.605Z,100592.56
2023-02-01T03:13:05.869Z,100591.34
2023-02-01T03:14:07.702Z,100586.38
2023-02-01T03:15:13.489Z,100596.59
2023-02-01T03:16:18.797Z,100602.75
2023-02-01T03:17:24.344Z,100586.59
2023-02-01T03:18:31.861Z,100587.91
2023-02-01T03:19:37.213Z,100595.59
2023-02-01T03:20:42.271Z,100579.84
2023-02-01T03:21:47.782Z,100591.41
2023-02-01T03:22:50.808Z,100589.16
2023-02-01T03:23:54.960Z,100589.84
2023-02-01T03:24:59.546Z,100594.00
2023-02-01T03:26:03.180Z,100593.50
2023-02-01T03:27:07.180Z,100592.31
2023-02-01T03:28:11.415Z,100597.38
2023-02-01T03:29:15.529Z,100591.00
2023-02-01T03:30:20.637Z,100597.47
2023-02-01T03:31:23.067Z,100596.63
2023-02-01T03:32:25.825Z,100598.00
2023-02-01T03:33:28.475Z,100598.69
2023-02-01T03:34:31.381Z,100601.88
2023-02-01T03:35:34.942Z,100594.97
2023-02-01T03:36:42.789Z,100602.97
2023-02-01T03:37:45.084Z,100592.63
2023-02-01T03:38:53.001Z,100595.09
2023-02-01T03:39:58.581Z,100591.72
2023-02-01T03:41:05.918Z,100576.06
2023-02-01T03:42:10.741Z,100585.31
2023-02-01T03:43:17.135Z,100581.59
2023-02-01T03:44:23.058Z,100585.00
2023-02-01T03:45:29.307Z,100582.66
2023-02-01T03:46:34.751Z,100580.66
2023-02-01T03:47:39.827Z,100582.50
2023-02-01T03:48:41.747Z,100591.19
2023-02-01T03:49:47.201Z,100581.03
2023-02-01T03:50:52.626Z,100580.00
2023-02-01T03:51:57.065Z,100573.38
2023-02-01T03:53:00.908Z,100580.41
2023-02-01T03:54:04.691Z,100571.91
2023-02-01T03:55:07.854Z,100570.91
2023-02-01T03:56:12.526Z,100565.97
2023-02-01T03:57:17.215Z,100571.94
2023-02-01T03:58:21.428Z,100573.66
2023-02-01T03:59:23.154Z,100569.75
2023-02-01T04:00:27.835Z,100568.75
2023-02-01T04:01:30.541Z,100572.47
2023-02-01T04:02:33.292Z,100566.19
2023-02-01T04:03:35.965Z,100569.22
2023-02-01T04:04:38.458Z,100570.06
2023-02-01T04:05:41.153Z,100565.16
2023-02-01T04:06:42.913Z,100562.28
2023-02-01T04:07:47.115Z,100566.56
2023-02-01T04:08:48.818Z,100568.97
2023-02-01T04:09:51.515Z,100569.97
2023-02-01T04:10:53.224Z,100567.25
2023-02-01T04:11:55.904Z,100562.81
2023-02-01T04:12:57.628Z,100565.53
2023-02-01T04:14:05.130Z,100555.34
2023-02-01T04:15:08.263Z,100567.09
2023-02-01T04:16:11.147Z,100556.22
2023-02-01T04:17:12.885Z,100558.94
2023-02-01T04:18:15.559Z,100562.13
2023-02-01T04:19:17.358Z,100552.78
2023-02-01T04:20:20.632Z,100548.34
2023-02-01T04:21:22.471Z,100556.22
2023-02-01T04:22:25.362Z,100551.78
2023-02-01T04:23:28.610Z,100553.78
2023-02-01T04:24:31.386Z,100554.84
2023-02-01T04:25:33.107Z,100550.25
2023-02-01T04:26:35.812Z,100558.41
2023-02-01T04:27:37.647Z,100552.13
2023-02-01T04:28:40.303Z,100551.75
2023-02-01T04:29:42.346Z,100549.13
2023-02-01T04:30:45.895Z,100550.03
2023-02-01T04:31:47.721Z,100561.91
2023-02-01T04:32:50.428Z,100557.19
2023-02-01T04:33:52.467Z,100559.53
2023-02-01T04:34:55.275Z,100556.84
2023-02-01T04:35:56.968Z,100551.94
2023-02-01T04:36:59.672Z,100554.50
2023-02-01T04:38:01.664Z,100552.97
2023-02-01T04:39:05.856Z,100557.22
2023-02-01T04:40:08.757Z,100562.50
2023-02-01T04:41:11.423Z,100572.53
2023-02-01T04:42:13.305Z,100565.72
2023-02-01T04:43:16.074Z,100574.00
2023-02-01T04:44:19.014Z,100561.75
2023-02-01T04:45:21.669Z,100565.34
2023-02-01T04:46:23.595Z,100552.59
2023-02-01T04:47:26.297Z,100561.75
2023-02-01T04:48:28.653Z,100563.00
2023-02-01T04:49:31.355Z,100565.16
2023-02-01T04:50:33.058Z,100571.78
2023-02-01T04:51:35.802Z,100580.09
2023-02-01T04:52:38.034Z,100574.84
2023-02-01T04:53:40.763Z,100568.06
2023-02-01T04:54:43.912Z,100565.88
2023-02-01T04:55:46.843Z,100572.84
2023-02-01T04:56:48.531Z,100566.19
2023-02-01T04:57:51.293Z,100564.84
2023-02-01T04:58:54.050Z,100558.41
2023-02-01T04:59:55.767Z,100556.00
2023-02-01T05:00:58.469Z,100560.44
2023-02-01T05:02:00.203Z,100562.13
2023-02-01T05:03:03.011Z,100568.25
2023-02-01T05:04:05.309Z,100578.13
2023-02-01T05:05:08.632Z,100572.53
2023-02-01T05:06:10.408Z,100577.59
2023-02-01T05:07:13.247Z,100572.47
2023-02-01T05:08:15.919Z,100576.59
2023-02-01T05:09:17.761Z,100574.88
2023-02-01T05:10:22.052Z,100583.84
2023-02-01T05:11:42.336Z,100573.81
2023-02-01T05:13:02.641Z,100574.84
2023-02-01T05:14:04.430Z,100567.69
2023-02-01T05:15:08.356Z,100569.22
2023-02-01T05:16:10.127Z,100573.13
2023-02-01T05:17:12.835Z,100573.66
2023-02-01T05:18:14.561Z,100575.38
2023-02-01T05:19:17.219Z,100584.53
2023-02-01T05:20:19.179Z,100570.41
2023-02-01T05:21:21.883Z,100560.91
2023-02-01T05:22:23.587Z,100562.41
2023-02-01T05:23:26.349Z,100561.91
2023-02-01T05:24:28.106Z,100554.59
2023-02-01T05:25:32.138Z,100552.22
2023-02-01T05:26:34.562Z,100549.50
2023-02-01T05:27:37.485Z,100541.84
2023-02-01T05:28:39.180Z,100541.66
2023-02-01T05:29:41.941Z,100542.50
2023-02-01T05:30:43.965Z,100544.38
2023-02-01T05:31:47.018Z,100538.25
2023-02-01T05:32:51.037Z,100538.78
2023-02-01T05:33:53.836Z,100543.50
2023-02-01T05:34:55.927Z,100535.69
2023-02-01T05:35:58.615Z,100530.63
2023-02-01T05:37:00.373Z,100544.38
2023-02-01T05:38:03.080Z,100535.16
2023-02-01T05:39:04.995Z,100535.47
2023-02-01T05:40:08.981Z,100537.88
2023-02-01T05:41:12.037Z,100538.41
2023-02-01T05:42:14.830Z,100540.63
2023-02-01T05:43:17.349Z,100536.91
2023-02-01T05:44:20.147Z,100552.38
2023-02-01T05:45:21.949Z,100556.25
2023-02-01T05:46:24.901Z,100554.38
2023-02-01T05:47:26.782Z,100552.03
2023-02-01T05:48:29.486Z,100566.19
2023-02-01T05:49:31.335Z,100560.19
2023-02-01T05:50:34.031Z,100562.25
2023-02-01T05:51:35.730Z,100560.50
2023-02-01T05:52:38.418Z,100558.81
2023-02-01T05:53:40.145Z,100556.97
2023-02-01T05:54:42.841Z,100547.78
2023-02-01T05:55:44.638Z,100555.56
2023-02-01T05:56:48.699Z,100560.13
2023-02-01T05:57:50.376Z,100558.25
2023-02-01T05:58:53.118Z,100553.66
2023-02-01T05:59:56.468Z,100574.25
2023-02-01T06:01:01.500Z,100568.56
2023-02-01T06:02:03.214Z,100559.75
2023-02-01T06:03:05.893Z,100555.16
2023-02-01T06:04:07.637Z,100553.81
2023-02-01T06:05:10.671Z,100556.53
2023-02-01T06:06:12.418Z,100565.94
2023-02-01T06:07:15.156Z,100562.66
2023-02-01T06:08:18.154Z,100556.03
2023-02-01T06:09:21.122Z,100561.59
2023-02-01T06:10:23.252Z,100564.19
2023-02-01T06:11:33.805Z,100567.03
2023-02-01T06:12:36.905Z,100566.72
2023-02-01T06:13:39.687Z,100557.22
2023-02-01T06:14:41.976Z,100568.56
2023-02-01T06:15:45.067Z,100568.28
2023-02-01T06:16:47.463Z,100562.34
2023-02-01T06:17:50.160Z,100561.47
2023-02-01T06:18:52.100Z,100559.56
2023-02-01T06:19:54.794Z,100556.69
2023-02-01T06:20:57.159Z,100554.31
2023-02-01T06:21:59.925Z,100552.13
2023-02-01T06:23:01.623Z,100554.47
2023-02-01T06:24:04.843Z,100551.34
2023-02-01T06:25:08.362Z,100555.47
2023-02-01T06:26:11.643Z,100558.38
2023-02-01T06:27:14.258Z,100571.56
2023-02-01T06:28:18.493Z,100578.78
2023-02-01T06:29:20.211Z,100569.09
2023-02-01T06:30:23.237Z,100570.34
2023-02-01T06:31:26.242Z,100558.28
2023-02-01T06:32:28.985Z,100555.78
2023-02-01T06:33:31.311Z,100563.25
2023-02-01T06:34:33.997Z,100555.66
2023-02-01T06:35:35.696Z,100552.75
2023-02-01T06:36:38.927Z,100554.47
2023-02-01T06:37:40.690Z,100560.03
2023-02-01T06:38:43.796Z,100557.31
2023-02-01T06:39:46.606Z,100561.59
2023-02-01T06:40:53.441Z,100571.78
2023-02-01T06:41:56.093Z,100573.63
2023-02-01T06:42:59.412Z,100576.84
2023-02-01T06:44:03.482Z,100579.94
2023-02-01T06:45:07.633Z,100578.16
2023-02-01T06:46:12.229Z,100583.22
2023-02-01T06:47:13.960Z,100572.19
2023-02-01T06:48:16.656Z,100571.50
2023-02-01T06:49:19.365Z,100566.25
2023-02-01T06:50:22.731Z,100573.44
2023-02-01T06:51:27.339Z,100562.19
2023-02-01T06:52:29.077Z,100553.56
2023-02-01T06:53:31.967Z,100543.53
2023-02-01T06:54:35.073Z,100562.72
2023-02-01T06:55:37.893Z,100559.00
2023-02-01T06:56:39.679Z,100556.28
2023-02-01T06:57:42.336Z,100557.44
2023-02-01T06:58:44.094Z,100561.81
2023-02-01T06:59:48.154Z,100561.66
2023-02-01T07:00:49.999Z,100562.88
2023-02-01T07:01:52.735Z,100557.91
2023-02-01T07:02:54.506Z,100559.63
2023-02-01T07:03:57.242Z,100573.69
2023-02-01T07:04:58.899Z,100569.72
2023-02-01T07:06:02.145Z,100578.25
2023-02-01T07:07:03.907Z,100576.56
2023-02-01T07:08:06.785Z,100575.50
2023-02-01T07:09:09.123Z,100582.16
2023-02-01T07:10:12.717Z,100578.59
2023-02-01T07:11:15.917Z,100582.47
2023-02-01T07:12:19.451Z,100571.59
2023-02-01T07:13:21.230Z,100574.31
2023-02-01T07:14:23.874Z,100574.00
2023-02-01T07:15:26.919Z,100567.00
2023-02-01T07:16:30.145Z,100566.53
2023-02-01T07:17:32.047Z,100562.47
2023-02-01T07:18:35.003Z,100564.53
2023-02-01T07:19:36.695Z,100559.41
2023-02-01T07:20:39.339Z,100561.47
2023-02-01T07:21:41.984Z,100552.78
2023-02-01T07:22:43.742Z,100549.94
2023-02-01T07:23:46.626Z,100556.22
2023-02-01T07:24:48.490Z,100562.44
2023-02-01T07:25:51.235Z,100565.38
2023-02-01T07:26:54.108Z,100562.13
2023-02-01T07:27:55.822Z,100565.28
2023-02-01T07:28:58.476Z,100567.34
2023-02-01T07:30:03.013Z,100565.00
2023-02-01T07:31:08.175Z,100563.13
2023-02-01T07:32:09.924Z,100564.28
2023-02-01T07:33:12.595Z,100564.16
2023-02-01T07:34:15.356Z,100560.09
2023-02-01T07:35:17.237Z,100567.25
2023-02-01T07:36:20.843Z,100566.53
2023-02-01T07:37:24.887Z,100569.63
2023-02-01T07:38:26.591Z,100572.06
2023-02-01T07:39:32.757Z,100569.81
2023-02-01T07:40:35.457Z,100567.78
2023-02-01T07:41:37.149Z,100574.59
2023-02-01T07:42:39.849Z,100568.78
2023-02-01T07:43:42.715Z,100571.97
2023-02-01T07:44:45.376Z,100574.59
2023-02-01T07:45:52.518Z,100574.13
2023-02-01T07:46:56.753Z,100582.47
2023-02-01T07:47:58.455Z,100583.59
2023-02-01T07:49:01.239Z,100586.50
2023-02-01T07:50:03.058Z,100586.19
2023-02-01T07:51:08.053Z,100598.69
2023-02-01T07:52:09.776Z,100596.91
2023-02-01T07:53:12.504Z,100594.56
2023-02-01T07:54:15.149Z,100600.06
2023-02-01T07:55:18.049Z,100601.06
2023-02-01T07:56:23.437Z,100599.56
2023-02-01T07:57:25.206Z,100603.69
2023-02-01T07:58:28.394Z,100597.75
2023-02-01T07:59:31.088Z,100601.00
2023-02-01T08:00:51.197Z,100600.53
2023-02-01T08:01:52.978Z,100602.94
2023-02-01T08:02:59.642Z,100604.47
2023-02-01T08:04:03.967Z,100614.22
2023-02-01T08:05:06.652Z,100611.53
2023-02-01T08:06:09.391Z,100608.34
2023-02-01T08:07:12.214Z,100616.25
2023-02-01T08:08:15.137Z,100612.41
2023-02-01T08:09:17.823Z,100618.72
2023-02-01T08:10:20.277Z,100618.06
2023-02-01T08:11:24.401Z,100616.38
2023-02-01T08:12:27.946Z,100609.44
2023-02-01T08:13:30.772Z,100612.69
2023-02-01T08:14:33.722Z,100620.38
2023-02-01T08:15:35.368Z,100613.25
2023-02-01T08:16:40.253Z,100612.13
2023-02-01T08:17:47.902Z,100613.34
2023-02-01T08:18:52.304Z,100617.25
2023-02-01T08:19:53.958Z,100614.88
2023-02-01T08:20:56.772Z,100616.94
2023-02-01T08:22:00.332Z,100618.81
2023-02-01T08:23:02.051Z,100618.84
2023-02-01T08:24:06.660Z,100631.13
2023-02-01T08:25:09.292Z,100622.09
2023-02-01T08:26:14.495Z,100628.09
2023-02-01T08:27:17.285Z,100636.91
2023-02-01T08:28:19.257Z,100626.19
2023-02-01T08:29:21.914Z,100636.13
2023-02-01T08:30:23.844Z,100634.72
2023-02-01T08:31:28.127Z,100629.97
2023-02-01T08:32:29.913Z,100633.72
2023-02-01T08:33:34.453Z,100628.63
2023-02-01T08:34:37.589Z,100624.72
2023-02-01T08:35:44.027Z,100624.69
2023-02-01T08:36:48.952Z,100628.97
2023-02-01T08:37:51.066Z,100621.44
2023-02-01T08:38:54.092Z,100619.44
2023-02-01T08:39:55.839Z,100633.41
2023-02-01T08:40:59.013Z,100640.88
2023-02-01T08:42:33.533Z,100637.34
2023-02-01T08:43:36.246Z,100640.88
2023-02-01T08:44:37.967Z,100650.63
2023-02-01T08:45:41.793Z,100638.50
2023-02-01T08:46:44.557Z,100646.31
2023-02-01T08:47:49.094Z,100647.03
2023-02-01T08:48:52.663Z,100650.91
2023-02-01T08:49:55.762Z,100649.03
2023-02-01T08:50:58.557Z,100645.97
2023-02-01T08:52:04.010Z,100653.13
2023-02-01T08:53:09.727Z,100642.22
2023-02-01T08:54:12.427Z,100638.63
2023-02-01T08:55:14.783Z,100645.25
2023-02-01T08:56:18.730Z,100638.28
2023-02-01T08:57:20.425Z,100647.63
2023-02-01T08:58:23.175Z,100642.34
2023-02-01T08:59:27.582Z,100655.47
2023-02-01T09:00:30.547Z,100654.84
2023-02-01T09:01:32.334Z,100658.72
2023-02-01T09:02:35.035Z,100651.38
2023-02-01T09:03:37.754Z,100649.69
2023-02-01T09:04:39.650Z,100651.06
2023-02-01T09:05:49.488Z,100647.47
2023-02-01T09:06:51.629Z,100652.78
2023-02-01T09:07:54.581Z,100657.41
2023-02-01T09:08:57.157Z,100650.06
2023-02-01T09:10:01.854Z,100652.47
2023-02-01T09:11:06.027Z,100652.47
2023-02-01T09:12:07.933Z,100649.06
2023-02-01T09:13:11.022Z,100649.56
2023-02-01T09:14:13.714Z,100651.13
2023-02-01T09:15:15.575Z,100650.06
2023-02-01T09:16:18.331Z,100667.06
2023-02-01T09:17:21.068Z,100658.38
2023-02-01T09:18:24.011Z,100660.22
2023-02-01T09:19:27.532Z,100653.88
2023-02-01T09:20:30.520Z,100658.28
2023-02-01T09:21:34.539Z,100659.81
2023-02-01T09:22:37.209Z,100655.34
2023-02-01T09:23:39.956Z,100659.09
2023-02-01T09:24:41.681Z,100674.94
2023-02-01T09:25:46.840Z,100665.75
2023-02-01T09:26:53.214Z,100672.06
2023-02-01T09:28:00.534Z,100665.75
2023-02-01T09:29:04.475Z,100686.47
2023-02-01T09:30:08.172Z,100683.59
2023-02-01T09:31:10.917Z,100687.13
2023-02-01T09:32:13.912Z,100682.69
2023-02-01T09:33:18.937Z,100678.25
2023-02-01T09:34:21.734Z,100689.38
2023-02-01T09:35:24.406Z,100695.78
2023-02-01T09:36:26.292Z,100703.03
2023-02-01T09:37:30.385Z,100689.78
2023-02-01T09:38:36.508Z,100704.44
2023-02-01T09:39:41.474Z,100696.06
2023-02-01T09:40:47.647Z,100695.03
2023-02-01T09:41:57.949Z,100700.31
2023-02-01T09:43:10.187Z,100695.03
2023-02-01T09:44:25.718Z,100711.53
2023-02-01T09:45:34.277Z,100698.50
2023-02-01T09:46:36.451Z,100719.38
2023-02-01T09:47:42.893Z,100702.72
2023-02-01T09:48:46.144Z,100704.22
2023-02-01T09:49:53.770Z,100709.13
2023-02-01T09:50:58.441Z,100723.59
2023-02-01T09:52:03.369Z,100726.22
2023-02-01T09:53:12.630Z,100732.31
2023-02-01T09:54:17.696Z,100721.91
2023-02-01T09:55:24.839Z,100718.34
2023-02-01T09:56:31.530Z,100725.88
2023-02-01T09:57:43.973Z,100731.69
2023-02-01T09:58:49.979Z,100730.06
2023-02-01T09:59:58.346Z,100723.59
2023-02-01T10:01:02.586Z,100724.13
2023-02-01T10:02:10.408Z,100718.22
2023-02-01T10:03:14.116Z,100721.59
2023-02-01T10:04:16.631Z,100735.56
2023-02-01T10:05:24.644Z,100723.28
2023-02-01T10:06:38.630Z,100732.94
2023-02-01T10:07:45.681Z,100746.31
2023-02-01T10:09:12.647Z,100729.72
2023-02-01T10:10:19.859Z,100730.06
2023-02-01T10:11:26.424Z,100733.63
2023-02-01T10:12:58.442Z,100737.94
2023-02-01T10:14:07.815Z,100722.94
2023-02-01T10:15:20.795Z,100727.72
2023-02-01T10:16:33.798Z,100711.19
2023-02-01T10:17:47.555Z,100717.34
2023-02-01T10:19:13.457Z,100712.75
2023-02-01T10:20:21.645Z,100719.59
2023-02-01T10:21:43.007Z,100711.56
2023-02-01T10:23:10.638Z,100708.06
2023-02-01T10:24:38.260Z,100720.81
2023-02-01T10:25:46.419Z,100700.63
2023-02-01T10:26:52.553Z,100711.47
2023-02-01T10:27:54.395Z,100704.69
2023-02-01T10:28:59.382Z,100693.50
2023-02-01T10:30:08.287Z,100696.59
2023-02-01T10:31:10.513Z,100697.59
2023-02-01T10:32:16.269Z,100686.91
2023-02-01T10:33:26.482Z,100683.72
2023-02-01T10:34:32.567Z,100678.38
2023-02-01T10:35:37.506Z,100682.97
2023-02-01T10:36:43.606Z,100680.81
2023-02-01T10:37:46.240Z,100675.06
2023-02-01T10:38:49.088Z,100685.03
2023-02-01T10:39:54.713Z,100680.50
2023-02-01T10:40:59.539Z,100677.78
2023-02-01T10:42:02.195Z,100674.56
2023-02-01T10:43:05.085Z,100671.19
2023-02-01T10:44:11.606Z,100662.47
2023-02-01T10:45:17.397Z,100658.72
2023-02-01T10:46:19.128Z,100667.41
2023-02-01T10:47:21.886Z,100673.84
2023-02-01T10:48:23.728Z,100670.47
2023-02-01T10:49:34.419Z,100670.13
2023-02-01T10:50:41.341Z,100667.75
2023-02-01T10:51:46.236Z,100666.75
2023-02-01T10:52:50.554Z,100679.50
2023-02-01T10:53:57.646Z,100669.47
2023-02-01T10:55:30.525Z,100657.56
2023-02-01T10:56:33.366Z,100654.00
2023-02-01T10:57:35.047Z,100649.75
2023-02-01T10:58:44.738Z,100643.94
2023-02-01T10:59:47.397Z,100636.63
2023-02-01T11:00:55.630Z,100637.63
2023-02-01T11:02:02.556Z,100632.34
2023-02-01T11:03:22.112Z,100636.63
2023-02-01T11:04:29.554Z,100632.91
2023-02-01T11:05:45.653Z,100631.53
2023-02-01T11:06:50.362Z,100634.75
2023-02-01T11:07:55.728Z,100632.56
2023-02-01T11:08:59.982Z,100620.09
2023-02-01T11:10:04.319Z,100630.31
2023-02-01T11:11:12.079Z,100659.78
2023-02-01T11:12:29.473Z,100648.06
2023-02-01T11:13:36.778Z,100635.66
2023-02-01T11:14:41.772Z,100625.81
2023-02-01T11:15:46.069Z,100629.22
2023-02-01T11:16:51.226Z,100626.63
2023-02-01T11:17:55.682Z,100626.59
2023-02-01T11:19:00.260Z,100625.91
2023-02-01T11:20:06.323Z,100634.59
2023-02-01T11:21:10.393Z,100632.06
2023-02-01T11:22:14.215Z,100632.72
2023-02-01T11:23:17.369Z,100623.53
2023-02-01T11:24:24.463Z,100635.16
2023-02-01T11:25:28.243Z,100635.16
2023-02-01T11:26:32.176Z,100627.78
2023-02-01T11:27:34.758Z,100618.56
2023-02-01T11:28:42.448Z,100629.63
2023-02-01T11:29:47.236Z,100622.94
2023-02-01T11:30:50.324Z,100630.44
2023-02-01T11:31:53.046Z,100630.56
2023-02-01T11:32:55.134Z,100628.03
2023-02-01T11:34:00.654Z,100631.44
2023-02-01T11:35:06.274Z,100632.09
2023-02-01T11:36:10.013Z,100628.91
2023-02-01T11:37:19.383Z,100646.28
2023-02-01T11:38:23.291Z,100644.44
2023-02-01T11:39:28.167Z,100630.31
2023-02-01T11:40:36.963Z,100637.94
2023-02-01T11:41:44.256Z,100641.00
2023-02-01T11:42:55.436Z,100646.41
2023-02-01T11:43:59.428Z,100643.34
2023-02-01T11:45:23.233Z,100623.94
2023-02-01T11:46:30.115Z,100641.75
2023-02-01T11:47:41.202Z,100643.13
2023-02-01T11:48:44.629Z,100632.84
2023-02-01T11:49:46.922Z,100639.50
2023-02-01T11:50:56.071Z,100634.19
2023-02-01T11:52:10.359Z,100635.22
2023-02-01T11:53:25.862Z,100637.41
2023-02-01T11:54:48.273Z,100638.97
2023-02-01T11:56:10.299Z,100639.34
2023-02-01T11:57:24.853Z,100647.16
2023-02-01T11:58:44.695Z,100639.66
2023-02-01T12:00:09.638Z,100628.47
2023-02-01T12:01:24.151Z,100631.34
2023-02-01T12:02:47.499Z,100625.41
2023-02-01T12:04:13.305Z,100626.06
2023-02-01T12:05:27.049Z,100634.44
2023-02-01T12:06:36.688Z,100615.38
2023-02-01T12:07:51.909Z,100623.13
2023-02-01T12:09:15.400Z,100623.66
2023-02-01T12:10:27.319Z,100615.63
2023-02-01T12:11:39.846Z,100609.38
2023-02-01T12:12:49.085Z,100587.91
2023-02-01T12:13:58.949Z,100598.06
2023-02-01T12:15:12.372Z,100608.16
2023-02-01T12:16:24.172Z,100600.66
2023-02-01T12:17:44.134Z,100609.84
2023-02-01T12:19:02.318Z,100590.50
2023-02-01T12:20:15.949Z,100608.69
2023-02-01T12:21:30.701Z,100614.41
2023-02-01T12:22:46.513Z,100603.53
2023-02-01T12:24:03.365Z,100599.50
2023-02-01T12:25:18.063Z,100607.31
2023-02-01T12:26:41.385Z,100615.13
2023-02-01T12:28:14.790Z,100601.28
2023-02-01T12:29:49.841Z,100599.44